createdAt,value
2016-12-29T00:00:02.100Z,23.87
2016-12-29T00:01:11.105Z,23.88
2016-12-29T00:02:20.109Z,23.94
2016-12-29T00:03:29.114Z,23.84
2016-12-29T00:04:38.097Z,23.91
2016-12-29T00:05:47.100Z,23.81
2016-12-29T00:06:56.076Z,23.88
2016-12-29T00:08:05.054Z,23.9
2016-12-29T00:09:14.452Z,23.91
2016-12-29T00:10:23.437Z,23.91
2016-12-29T00:11:33.538Z,23.9
2016-12-29T00:12:42.576Z,23.91
2016-12-29T00:13:51.752Z,23.84
2016-12-29T00:15:01.050Z,23.91
2016-12-29T00:16:10.117Z,23.86
2016-12-29T00:17:19.244Z,23.81
2016-12-29T00:18:29.271Z,23.83
2016-12-29T00:19:38.249Z,23.81
2016-12-29T00:20:47.277Z,23.94
2016-12-29T00:21:56.275Z,23.87
2016-12-29T00:23:05.294Z,23.84
2016-12-29T00:24:14.364Z,23.96
2016-12-29T00:25:23.409Z,23.87
2016-12-29T00:26:32.696Z,23.93
2016-12-29T00:27:41.764Z,23.88
2016-12-29T00:28:50.865Z,23.81
2016-12-29T00:29:59.879Z,23.86
2016-12-29T00:31:08.865Z,23.86
2016-12-29T00:32:18.214Z,23.84
2016-12-29T00:33:27.203Z,23.84
2016-12-29T00:34:36.234Z,23.84
2016-12-29T00:35:45.341Z,23.84
2016-12-29T00:36:54.725Z,23.79
2016-12-29T00:38:03.768Z,23.72
2016-12-29T00:39:13.133Z,23.79
2016-12-29T00:40:22.124Z,23.68
2016-12-29T00:41:31.172Z,23.69
2016-12-29T00:42:40.183Z,23.61
2016-12-29T00:43:49.373Z,23.61
2016-12-29T00:44:58.407Z,23.69
2016-12-29T00:46:07.503Z,23.79
2016-12-29T00:47:16.478Z,23.88
2016-12-29T00:48:25.840Z,23.91
2016-12-29T00:49:34.843Z,23.86
2016-12-29T00:50:43.832Z,23.91
2016-12-29T00:51:52.913Z,23.87
2016-12-29T00:53:01.901Z,23.88
2016-12-29T00:54:10.901Z,23.93
2016-12-29T00:55:19.872Z,23.88
2016-12-29T00:56:28.856Z,23.86
2016-12-29T00:57:37.842Z,23.8
2016-12-29T00:58:46.819Z,23.84
2016-12-29T00:59:55.811Z,23.91
2016-12-29T01:01:04.801Z,23.81
2016-12-29T01:02:13.786Z,23.73
2016-12-29T01:03:22.779Z,23.75
2016-12-29T01:04:31.765Z,23.71
2016-12-29T01:05:40.759Z,23.59
2016-12-29T01:06:49.739Z,23.65
2016-12-29T01:07:58.722Z,23.44
2016-12-29T01:09:07.703Z,23.41
2016-12-29T01:10:16.690Z,23.25
2016-12-29T01:11:25.682Z,23.16
2016-12-29T01:12:34.669Z,22.98
2016-12-29T01:13:43.657Z,22.76
2016-12-29T01:14:52.644Z,22.78
2016-12-29T01:16:01.616Z,22.75
2016-12-29T01:17:10.596Z,22.46
2016-12-29T01:18:19.585Z,22.38
2016-12-29T01:19:28.566Z,21.96
2016-12-29T01:20:37.542Z,21.96
2016-12-29T01:21:46.511Z,21.79
2016-12-29T01:22:55.508Z,21.52
2016-12-29T01:24:04.498Z,21.52
2016-12-29T01:25:13.504Z,21.45
2016-12-29T01:26:22.498Z,21.68
2016-12-29T01:27:31.504Z,21.39
2016-12-29T01:28:40.495Z,21.1
2016-12-29T01:29:49.471Z,20.9
2016-12-29T01:30:58.457Z,20.9
2016-12-29T01:32:07.440Z,20.72
2016-12-29T01:33:16.433Z,20.53
2016-12-29T01:34:25.403Z,20.31
2016-12-29T01:35:34.391Z,20.27
2016-12-29T01:36:43.369Z,20.07
2016-12-29T01:37:52.358Z,20.3
2016-12-29T01:39:01.339Z,20.46
2016-12-29T01:40:10.309Z,20.2
2016-12-29T01:41:19.303Z,19.94
2016-12-29T01:42:28.283Z,19.9
2016-12-29T01:43:37.252Z,19.88
2016-12-29T01:44:46.227Z,19.72
2016-12-29T01:45:55.236Z,19.8
2016-12-29T01:47:04.221Z,19.83
2016-12-29T01:48:13.198Z,19.7
2016-12-29T01:49:22.316Z,19.72
2016-12-29T01:50:31.448Z,19.45
2016-12-29T01:51:40.433Z,19.22
2016-12-29T01:52:49.522Z,19.28
2016-12-29T01:53:58.533Z,19.2
2016-12-29T01:55:07.552Z,19.25
2016-12-29T01:56:16.568Z,19.32
2016-12-29T01:57:25.575Z,19.18
2016-12-29T01:58:34.592Z,19.09
2016-12-29T01:59:43.661Z,19.02
2016-12-29T02:00:52.649Z,18.95
2016-12-29T02:02:01.829Z,18.98
2016-12-29T02:03:10.892Z,18.91
2016-12-29T02:04:19.979Z,18.97
2016-12-29T02:05:28.964Z,18.74
2016-12-29T02:06:37.941Z,18.79
2016-12-29T02:07:46.970Z,18.74
2016-12-29T02:08:56.026Z,18.76
2016-12-29T02:10:05.852Z,18.71
2016-12-29T02:11:15.027Z,18.74
2016-12-29T02:12:24.497Z,18.72
2016-12-29T02:13:33.744Z,18.69
2016-12-29T02:14:43.506Z,18.61
2016-12-29T02:15:52.891Z,18.65
2016-12-29T02:17:01.891Z,18.47
2016-12-29T02:18:11.031Z,18.42
2016-12-29T02:19:19.999Z,18.47
2016-12-29T02:20:28.987Z,18.35
2016-12-29T02:21:38.080Z,18.34
2016-12-29T02:22:47.061Z,18.44
2016-12-29T02:23:56.146Z,18.4
2016-12-29T02:25:05.127Z,18.35
2016-12-29T02:26:14.186Z,18.31
2016-12-29T02:27:23.163Z,18.14
2016-12-29T02:28:32.323Z,18.28
2016-12-29T02:29:41.348Z,18.21
2016-12-29T02:30:50.439Z,18.22
2016-12-29T02:31:59.421Z,18.16
2016-12-29T02:33:08.400Z,18.17
2016-12-29T02:34:17.367Z,18.1
2016-12-29T02:35:26.406Z,18.17
2016-12-29T02:36:35.377Z,18.11
2016-12-29T02:37:44.379Z,17.98
2016-12-29T02:38:53.359Z,17.91
2016-12-29T02:40:02.491Z,17.94
2016-12-29T02:41:11.481Z,17.96
2016-12-29T02:42:20.469Z,17.95
2016-12-29T02:43:29.449Z,17.99
2016-12-29T02:44:38.496Z,17.96
2016-12-29T02:45:47.481Z,17.89
2016-12-29T02:46:56.457Z,17.89
2016-12-29T02:48:05.734Z,17.89
2016-12-29T02:49:14.723Z,17.84
2016-12-29T02:50:23.793Z,17.71
2016-12-29T02:51:32.780Z,17.69
2016-12-29T02:52:41.765Z,17.7
2016-12-29T02:53:50.749Z,17.53
2016-12-29T02:54:59.732Z,17.54
2016-12-29T02:56:08.710Z,17.53
2016-12-29T02:57:17.702Z,17.62
2016-12-29T02:58:26.690Z,17.6
2016-12-29T02:59:35.681Z,17.54
2016-12-29T03:00:44.725Z,17.42
2016-12-29T03:01:53.698Z,17.45
2016-12-29T03:03:02.686Z,17.38
2016-12-29T03:04:11.691Z,17.3
2016-12-29T03:05:20.960Z,17.26
2016-12-29T03:06:30.343Z,17.14
2016-12-29T03:07:39.433Z,17.33
2016-12-29T03:08:48.398Z,17.29
2016-12-29T03:09:57.384Z,17.39
2016-12-29T03:11:06.374Z,17.3
2016-12-29T03:12:15.344Z,17.21
2016-12-29T03:13:24.329Z,17.36
2016-12-29T03:14:33.302Z,17.44
2016-12-29T03:15:42.385Z,17.39
2016-12-29T03:16:51.360Z,17.4
2016-12-29T03:18:00.401Z,17.44
2016-12-29T03:19:09.387Z,17.38
2016-12-29T03:20:18.368Z,17.53
2016-12-29T03:21:27.364Z,17.4
2016-12-29T03:22:36.333Z,17.29
2016-12-29T03:23:45.311Z,17.36
2016-12-29T03:24:54.288Z,17.29
2016-12-29T03:26:03.273Z,17.26
2016-12-29T03:27:12.244Z,17.28
2016-12-29T03:28:21.228Z,17.15
2016-12-29T03:29:30.252Z,17.11
2016-12-29T03:30:39.229Z,16.96
2016-12-29T03:31:48.235Z,16.99
2016-12-29T03:32:57.221Z,16.93
2016-12-29T03:34:06.210Z,16.92
2016-12-29T03:35:16.221Z,16.99
2016-12-29T03:36:25.207Z,16.9
2016-12-29T03:37:34.175Z,16.93
2016-12-29T03:38:43.157Z,16.9
2016-12-29T03:39:52.376Z,16.87
2016-12-29T03:41:01.357Z,16.87
2016-12-29T03:42:10.354Z,16.92
2016-12-29T03:43:19.337Z,16.95
2016-12-29T03:44:28.430Z,16.78
2016-12-29T03:45:37.404Z,16.74
2016-12-29T03:46:46.372Z,16.77
2016-12-29T03:47:55.362Z,16.78
2016-12-29T03:49:04.343Z,16.66
2016-12-29T03:50:13.323Z,16.58
2016-12-29T03:51:22.360Z,16.53
2016-12-29T03:52:31.329Z,16.56
2016-12-29T03:53:40.304Z,16.56
2016-12-29T03:54:49.289Z,16.5
2016-12-29T03:55:58.270Z,16.48
2016-12-29T03:57:07.246Z,16.58
2016-12-29T03:58:16.220Z,16.67
2016-12-29T03:59:25.188Z,16.65
2016-12-29T04:00:34.592Z,16.6
2016-12-29T04:01:43.562Z,16.66
2016-12-29T04:02:52.546Z,16.59
2016-12-29T04:04:01.522Z,16.47
2016-12-29T04:05:10.554Z,16.6
2016-12-29T04:06:19.556Z,16.56
2016-12-29T04:07:28.530Z,16.5
2016-12-29T04:08:37.521Z,16.56
2016-12-29T04:09:46.489Z,16.45
2016-12-29T04:10:55.454Z,16.53
2016-12-29T04:12:04.446Z,16.42
2016-12-29T04:13:13.614Z,16.59
2016-12-29T04:14:22.709Z,16.44
2016-12-29T04:15:31.678Z,16.38
2016-12-29T04:16:40.652Z,16.47
2016-12-29T04:17:49.625Z,16.55
2016-12-29T04:18:58.608Z,16.42
2016-12-29T04:20:07.596Z,16.44
2016-12-29T04:21:16.585Z,16.44
2016-12-29T04:22:25.572Z,16.44
2016-12-29T04:23:34.541Z,16.5
2016-12-29T04:24:43.502Z,16.41
2016-12-29T04:25:52.483Z,16.4
2016-12-29T04:27:01.452Z,16.42
2016-12-29T04:28:10.454Z,16.41
2016-12-29T04:29:19.426Z,16.44
2016-12-29T04:30:28.411Z,16.42
2016-12-29T04:31:37.382Z,16.42
2016-12-29T04:32:46.370Z,16.42
2016-12-29T04:33:55.331Z,16.42
2016-12-29T04:35:04.319Z,16.48
2016-12-29T04:36:13.299Z,16.62
2016-12-29T04:37:22.280Z,16.47
2016-12-29T04:38:31.257Z,16.5
2016-12-29T04:39:40.240Z,16.42
2016-12-29T04:40:49.214Z,16.53
2016-12-29T04:41:58.221Z,16.4
2016-12-29T04:43:07.196Z,16.47
2016-12-29T04:44:16.178Z,16.5
2016-12-29T04:45:25.141Z,16.59
2016-12-29T04:46:34.121Z,16.65
2016-12-29T04:47:43.148Z,16.42
2016-12-29T04:48:52.129Z,16.42
2016-12-29T04:50:01.113Z,16.42
2016-12-29T04:51:10.085Z,16.35
2016-12-29T04:52:19.060Z,16.35
2016-12-29T04:53:28.060Z,16.52
2016-12-29T04:54:37.076Z,16.53
2016-12-29T04:55:46.068Z,16.44
2016-12-29T04:56:55.051Z,16.45
2016-12-29T04:58:04.044Z,16.29
2016-12-29T04:59:13.015Z,16.22
2016-12-29T05:00:21.988Z,16.2
2016-12-29T05:01:30.972Z,16.15
2016-12-29T05:02:39.946Z,16.1
2016-12-29T05:03:48.922Z,16
2016-12-29T05:04:57.890Z,15.99
2016-12-29T05:06:06.867Z,15.94
2016-12-29T05:07:15.862Z,15.99
2016-12-29T05:08:24.848Z,16.01
2016-12-29T05:09:33.825Z,15.91
2016-12-29T05:10:42.814Z,15.94
2016-12-29T05:11:51.860Z,16
2016-12-29T05:13:00.821Z,16.01
2016-12-29T05:14:09.864Z,15.99
2016-12-29T05:15:18.845Z,15.92
2016-12-29T05:16:27.813Z,16.01
2016-12-29T05:17:36.796Z,15.96
2016-12-29T05:18:45.838Z,16.03
2016-12-29T05:19:54.807Z,16.14
2016-12-29T05:21:03.778Z,15.99
2016-12-29T05:22:12.756Z,16.09
2016-12-29T05:23:21.747Z,16.09
2016-12-29T05:24:30.722Z,16.2
2016-12-29T05:25:39.692Z,16.18
2016-12-29T05:26:48.676Z,16.17
2016-12-29T05:27:57.650Z,16.29
2016-12-29T05:29:06.641Z,16.37
2016-12-29T05:30:15.709Z,16.32
2016-12-29T05:31:24.698Z,16.32
2016-12-29T05:32:33.667Z,16.38
2016-12-29T05:33:42.700Z,16.45
2016-12-29T05:34:51.698Z,16.35
2016-12-29T05:36:00.662Z,16.25
2016-12-29T05:37:09.663Z,16.4
2016-12-29T05:38:19.032Z,16.34
2016-12-29T05:39:28.015Z,16.29
2016-12-29T05:40:37.001Z,16.32
2016-12-29T05:41:45.971Z,16.2
2016-12-29T05:42:54.943Z,16.22
2016-12-29T05:44:03.918Z,16.3
2016-12-29T05:45:12.966Z,16.1
2016-12-29T05:46:22.002Z,15.99
2016-12-29T05:47:30.977Z,16
2016-12-29T05:48:39.949Z,16.04
2016-12-29T05:49:48.916Z,16.01
2016-12-29T05:50:57.899Z,15.85
2016-12-29T05:52:06.890Z,15.78
2016-12-29T05:53:15.877Z,15.97
2016-12-29T05:54:24.857Z,15.94
2016-12-29T05:55:33.830Z,16
2016-12-29T05:56:42.812Z,15.86
2016-12-29T05:57:51.802Z,15.84
2016-12-29T05:59:00.779Z,15.81
2016-12-29T06:00:09.748Z,15.69
2016-12-29T06:01:18.716Z,15.71
2016-12-29T06:02:27.693Z,15.78
2016-12-29T06:03:36.675Z,15.79
2016-12-29T06:04:45.665Z,15.86
2016-12-29T06:05:54.743Z,15.76
2016-12-29T06:07:03.712Z,15.74
2016-12-29T06:08:12.688Z,15.64
2016-12-29T06:09:21.672Z,15.74
2016-12-29T06:10:30.658Z,15.79
2016-12-29T06:11:39.653Z,15.79
2016-12-29T06:12:48.628Z,15.79
2016-12-29T06:13:57.614Z,16.06
2016-12-29T06:15:06.646Z,16.01
2016-12-29T06:16:15.625Z,15.97
2016-12-29T06:17:24.613Z,15.94
2016-12-29T06:18:33.582Z,15.82
2016-12-29T06:19:42.558Z,15.78
2016-12-29T06:20:51.547Z,15.92
2016-12-29T06:22:00.530Z,15.89
2016-12-29T06:23:09.516Z,16.09
2016-12-29T06:24:18.515Z,16.22
2016-12-29T06:25:27.501Z,16.1
2016-12-29T06:26:36.499Z,16.1
2016-12-29T06:27:45.466Z,16.32
2016-12-29T06:28:54.440Z,16.23
2016-12-29T06:30:03.427Z,16.23
2016-12-29T06:31:12.394Z,16.3
2016-12-29T06:32:21.372Z,16.18
2016-12-29T06:33:30.344Z,16.03
2016-12-29T06:34:39.334Z,16.23
2016-12-29T06:35:48.299Z,16.26
2016-12-29T06:36:57.269Z,16.44
2016-12-29T06:38:06.302Z,16.3
2016-12-29T06:39:15.276Z,16.4
2016-12-29T06:40:24.256Z,16.25
2016-12-29T06:41:33.390Z,16.09
2016-12-29T06:42:42.424Z,16
2016-12-29T06:43:51.397Z,16.01
2016-12-29T06:45:00.369Z,15.88
2016-12-29T06:46:09.349Z,15.85
2016-12-29T06:47:18.341Z,15.86
2016-12-29T06:48:27.317Z,15.86
2016-12-29T06:49:36.282Z,15.96
2016-12-29T06:50:45.291Z,16.03
2016-12-29T06:51:54.280Z,15.99
2016-12-29T06:53:03.298Z,15.99
2016-12-29T06:54:12.279Z,15.74
2016-12-29T06:55:21.256Z,15.74
2016-12-29T06:56:30.255Z,15.91
2016-12-29T06:57:39.232Z,15.71
2016-12-29T06:58:48.222Z,15.78
2016-12-29T06:59:57.227Z,15.73
2016-12-29T07:01:06.199Z,15.86
2016-12-29T07:02:15.196Z,15.92
2016-12-29T07:03:24.170Z,15.84
2016-12-29T07:04:33.157Z,15.79
2016-12-29T07:05:42.141Z,15.64
2016-12-29T07:06:51.104Z,15.78
2016-12-29T07:08:00.092Z,15.71
2016-12-29T07:09:09.067Z,15.94
2016-12-29T07:10:18.049Z,15.96
2016-12-29T07:11:27.028Z,15.89
2016-12-29T07:12:36.081Z,15.92
2016-12-29T07:13:45.051Z,15.99
2016-12-29T07:14:54.045Z,16.03
2016-12-29T07:16:03.020Z,16.03
2016-12-29T07:17:12.003Z,16.14
2016-12-29T07:18:20.994Z,16.22
2016-12-29T07:19:29.987Z,16.03
2016-12-29T07:20:38.954Z,16.01
2016-12-29T07:21:47.959Z,16.03
2016-12-29T07:22:56.938Z,15.66
2016-12-29T07:24:05.937Z,15.66
2016-12-29T07:25:14.914Z,15.76
2016-12-29T07:26:23.870Z,15.84
2016-12-29T07:27:32.848Z,15.79
2016-12-29T07:28:41.839Z,15.79
2016-12-29T07:29:50.833Z,15.82
2016-12-29T07:30:59.814Z,15.79
2016-12-29T07:32:08.791Z,15.89
2016-12-29T07:33:17.754Z,15.74
2016-12-29T07:34:26.731Z,15.67
2016-12-29T07:35:35.733Z,15.81
2016-12-29T07:36:44.715Z,15.86
2016-12-29T07:37:53.726Z,15.76
2016-12-29T07:39:02.736Z,15.69
2016-12-29T07:40:11.722Z,15.66
2016-12-29T07:41:20.699Z,15.79
2016-12-29T07:42:29.677Z,15.74
2016-12-29T07:43:38.676Z,15.53
2016-12-29T07:44:47.655Z,15.52
2016-12-29T07:45:56.628Z,15.51
2016-12-29T07:47:05.597Z,15.24
2016-12-29T07:48:14.577Z,15.52
2016-12-29T07:49:23.557Z,15.63
2016-12-29T07:50:32.519Z,15.61
2016-12-29T07:51:41.487Z,15.82
2016-12-29T07:52:50.469Z,15.86
2016-12-29T07:53:59.442Z,15.66
2016-12-29T07:55:08.429Z,15.53
2016-12-29T07:56:17.401Z,15.63
2016-12-29T07:57:26.370Z,15.63
2016-12-29T07:58:35.349Z,15.81
2016-12-29T07:59:44.323Z,15.89
2016-12-29T08:00:53.297Z,15.89
2016-12-29T08:02:02.276Z,15.86
2016-12-29T08:03:11.347Z,15.84
2016-12-29T08:04:20.323Z,15.7
2016-12-29T08:05:29.321Z,15.69
2016-12-29T08:06:38.306Z,15.67
2016-12-29T08:07:47.288Z,15.81
2016-12-29T08:08:56.259Z,15.97
2016-12-29T08:10:05.234Z,15.91
2016-12-29T08:11:14.209Z,15.96
2016-12-29T08:12:23.809Z,15.7
2016-12-29T08:13:32.794Z,15.52
2016-12-29T08:14:41.768Z,15.34
2016-12-29T08:15:50.759Z,15.48
2016-12-29T08:16:59.749Z,15.51
2016-12-29T08:18:08.725Z,15.53
2016-12-29T08:19:17.703Z,15.3
2016-12-29T08:20:26.689Z,15.37
2016-12-29T08:21:35.688Z,15.52
2016-12-29T08:22:44.690Z,15.61
2016-12-29T08:23:53.663Z,15.41
2016-12-29T08:25:02.648Z,15.28
2016-12-29T08:26:11.624Z,15.44
2016-12-29T08:27:20.612Z,15.46
2016-12-29T08:28:29.697Z,15.37
2016-12-29T08:29:38.678Z,15.41
2016-12-29T08:30:47.647Z,15.42
2016-12-29T08:31:56.632Z,15.6
2016-12-29T08:33:05.613Z,15.51
2016-12-29T08:34:14.592Z,15.48
2016-12-29T08:35:23.585Z,15.73
2016-12-29T08:36:32.560Z,15.6
2016-12-29T08:37:41.571Z,15.64
2016-12-29T08:38:50.597Z,15.86
2016-12-29T08:39:59.579Z,15.91
2016-12-29T08:41:08.555Z,15.96
2016-12-29T08:42:17.561Z,15.91
2016-12-29T08:43:26.532Z,15.91
2016-12-29T08:44:35.585Z,16.01
2016-12-29T08:45:44.566Z,15.97
2016-12-29T08:46:53.545Z,16.03
2016-12-29T08:48:02.521Z,15.99
2016-12-29T08:49:11.505Z,16.03
2016-12-29T08:50:20.480Z,16.07
2016-12-29T08:51:29.452Z,16.14
2016-12-29T08:52:38.423Z,16.01
2016-12-29T08:53:47.392Z,16.01
2016-12-29T08:54:56.372Z,15.97
2016-12-29T08:56:05.361Z,16.01
2016-12-29T08:57:14.350Z,16.11
2016-12-29T08:58:23.341Z,16.03
2016-12-29T08:59:32.319Z,15.97
2016-12-29T09:00:41.291Z,15.67
2016-12-29T09:01:50.364Z,15.7
2016-12-29T09:02:59.352Z,15.7
2016-12-29T09:04:08.356Z,15.61
2016-12-29T09:05:17.323Z,15.64
2016-12-29T09:06:26.305Z,15.55
2016-12-29T09:07:35.283Z,15.88
2016-12-29T09:08:44.286Z,16.18
2016-12-29T09:09:53.265Z,16.18
2016-12-29T09:11:02.234Z,16.44
2016-12-29T09:12:11.201Z,16.44
2016-12-29T09:13:20.197Z,16.34
2016-12-29T09:14:29.354Z,16.23
2016-12-29T09:15:38.327Z,15.84
2016-12-29T09:16:47.307Z,15.42
2016-12-29T09:17:56.285Z,15.09
2016-12-29T09:19:05.248Z,14.87
2016-12-29T09:20:14.227Z,15.05
2016-12-29T09:21:23.190Z,14.84
2016-12-29T09:22:32.173Z,14.9
2016-12-29T09:23:41.160Z,15.05
2016-12-29T09:24:50.134Z,15.06
2016-12-29T09:25:59.105Z,14.98
2016-12-29T09:27:08.084Z,15.15
2016-12-29T09:28:17.061Z,15.06
2016-12-29T09:29:26.041Z,15.09
2016-12-29T09:30:35.025Z,15.08
2016-12-29T09:31:43.988Z,15.01
2016-12-29T09:32:52.975Z,15.3
2016-12-29T09:34:01.967Z,15.55
2016-12-29T09:35:11.037Z,15.76
2016-12-29T09:36:20.031Z,15.99
2016-12-29T09:37:29.002Z,16.07
2016-12-29T09:38:37.980Z,16.17
2016-12-29T09:39:46.955Z,16.17
2016-12-29T09:40:55.932Z,16.25
2016-12-29T09:42:04.983Z,16.26
2016-12-29T09:43:14.069Z,16.18
2016-12-29T09:44:23.032Z,16.34
2016-12-29T09:45:32.019Z,16.37
2016-12-29T09:46:41.003Z,16.42
2016-12-29T09:47:50.055Z,16.58
2016-12-29T09:48:59.028Z,16.67
2016-12-29T09:50:08.014Z,16.75
2016-12-29T09:51:16.989Z,16.78
2016-12-29T09:52:25.976Z,16.75
2016-12-29T09:53:35.541Z,16.74
2016-12-29T09:54:45.185Z,16.82
2016-12-29T09:55:54.184Z,17.03
2016-12-29T09:57:04.095Z,16.99
2016-12-29T09:58:13.105Z,17.1
2016-12-29T09:59:51.787Z,17.24
2016-12-29T10:01:00.779Z,17.3
2016-12-29T10:02:09.753Z,17.36
2016-12-29T10:03:18.810Z,17.42
2016-12-29T10:04:27.803Z,17.45
2016-12-29T10:05:36.777Z,17.53
2016-12-29T10:06:45.774Z,17.62
2016-12-29T10:07:54.786Z,17.64
2016-12-29T10:09:04.130Z,17.74
2016-12-29T10:10:13.481Z,17.74
2016-12-29T10:11:22.458Z,17.79
2016-12-29T10:12:31.629Z,17.8
2016-12-29T10:13:40.907Z,17.85
2016-12-29T10:14:50.333Z,17.88
2016-12-29T10:16:00.076Z,17.89
2016-12-29T10:17:09.053Z,17.94
2016-12-29T10:18:18.045Z,17.96
2016-12-29T10:19:27.040Z,17.94
2016-12-29T10:20:36.014Z,17.96
2016-12-29T10:21:46.171Z,18.07
2016-12-29T10:22:56.624Z,18.11
2016-12-29T10:24:05.613Z,18.17
2016-12-29T10:25:14.645Z,18.22
2016-12-29T10:26:23.644Z,18.26
2016-12-29T10:27:32.609Z,18.28
2016-12-29T10:28:41.590Z,18.36
2016-12-29T10:29:50.585Z,18.42
2016-12-29T10:30:59.564Z,18.28
2016-12-29T10:32:08.545Z,18.44
2016-12-29T10:33:17.525Z,18.46
2016-12-29T10:34:26.506Z,18.44
2016-12-29T10:35:35.492Z,18.46
2016-12-29T10:36:45.297Z,18.46
2016-12-29T10:37:55.660Z,18.44
2016-12-29T10:39:04.638Z,18.43
2016-12-29T10:40:13.625Z,18.5
2016-12-29T10:41:22.614Z,18.59
2016-12-29T10:42:31.601Z,18.74
2016-12-29T10:43:40.587Z,18.65
2016-12-29T10:44:49.911Z,18.65
2016-12-29T10:45:59.363Z,18.71
2016-12-29T10:47:08.341Z,18.79
2016-12-29T10:48:17.329Z,18.74
2016-12-29T10:49:26.294Z,18.77
2016-12-29T10:50:35.279Z,18.83
2016-12-29T10:51:44.245Z,18.89
2016-12-29T10:52:53.255Z,18.97
2016-12-29T10:54:02.235Z,18.94
2016-12-29T10:55:11.216Z,18.9
2016-12-29T10:56:20.181Z,18.9
2016-12-29T10:57:29.155Z,18.95
2016-12-29T10:58:38.121Z,18.91
2016-12-29T10:59:47.105Z,18.95
2016-12-29T11:00:56.090Z,18.9
2016-12-29T11:02:05.067Z,18.95
2016-12-29T11:03:14.030Z,18.95
2016-12-29T11:04:23.016Z,18.91
2016-12-29T11:05:31.990Z,19.02
2016-12-29T11:06:40.990Z,19.06
2016-12-29T11:07:49.970Z,19.14
2016-12-29T11:08:58.951Z,19.15
2016-12-29T11:10:09.648Z,19.22
2016-12-29T11:11:18.766Z,19.28
2016-12-29T11:12:27.788Z,19.33
2016-12-29T11:13:37.007Z,19.35
2016-12-29T11:14:45.988Z,19.24
2016-12-29T11:15:55.385Z,19.35
2016-12-29T11:17:04.920Z,19.22
2016-12-29T11:18:13.896Z,19.32
2016-12-29T11:19:23.606Z,19.28
2016-12-29T11:20:33.209Z,19.35
2016-12-29T11:21:42.385Z,19.39
2016-12-29T11:22:51.368Z,19.4
2016-12-29T11:24:01.067Z,19.39
2016-12-29T11:25:10.036Z,19.45
2016-12-29T11:26:19.015Z,19.39
2016-12-29T11:27:28.035Z,19.45
2016-12-29T11:28:37.013Z,19.45
2016-12-29T11:29:46.006Z,19.55
2016-12-29T11:30:54.976Z,19.64
2016-12-29T11:32:03.943Z,19.58
2016-12-29T11:33:12.916Z,19.62
2016-12-29T11:34:21.889Z,19.7
2016-12-29T11:35:30.892Z,19.72
2016-12-29T11:36:39.867Z,19.65
2016-12-29T11:37:48.854Z,19.72
2016-12-29T11:38:57.829Z,19.76
2016-12-29T11:40:06.816Z,19.82
2016-12-29T11:41:15.828Z,19.79
2016-12-29T11:42:24.805Z,19.8
2016-12-29T11:43:33.780Z,19.79
2016-12-29T11:44:42.761Z,19.8
2016-12-29T11:45:51.742Z,19.79
2016-12-29T11:47:00.724Z,19.75
2016-12-29T11:48:09.713Z,19.8
2016-12-29T11:49:18.688Z,19.77
2016-12-29T11:50:27.669Z,19.79
2016-12-29T11:51:36.660Z,19.91
2016-12-29T11:52:45.639Z,19.95
2016-12-29T11:53:54.646Z,19.91
2016-12-29T11:55:03.657Z,19.91
2016-12-29T11:56:13.468Z,19.9
2016-12-29T11:57:22.472Z,19.92
2016-12-29T11:58:31.466Z,19.94
2016-12-29T11:59:40.448Z,20.04
2016-12-29T12:00:49.461Z,20.04
2016-12-29T12:01:58.772Z,20.01
2016-12-29T12:03:07.780Z,20.12
2016-12-29T12:04:16.756Z,20.09
2016-12-29T12:05:25.728Z,20.06
2016-12-29T12:06:34.695Z,20.13
2016-12-29T12:07:43.662Z,20.1
2016-12-29T12:08:52.652Z,20.13
2016-12-29T12:10:01.644Z,20.24
2016-12-29T12:11:10.624Z,20.16
2016-12-29T12:12:19.601Z,20.2
2016-12-29T12:13:28.636Z,20.27
2016-12-29T12:14:37.619Z,20.31
2016-12-29T12:15:46.595Z,20.41
2016-12-29T12:16:55.573Z,20.4
2016-12-29T12:18:04.534Z,20.37
2016-12-29T12:19:13.510Z,20.47
2016-12-29T12:20:22.491Z,20.53
2016-12-29T12:21:31.460Z,20.5
2016-12-29T12:22:40.428Z,20.47
2016-12-29T12:23:49.440Z,20.47
2016-12-29T12:24:58.841Z,20.63
2016-12-29T12:26:07.818Z,20.58
2016-12-29T12:27:16.792Z,20.57
2016-12-29T12:28:25.766Z,20.62
2016-12-29T12:29:34.781Z,20.65
2016-12-29T12:30:43.762Z,20.57
2016-12-29T12:31:52.733Z,20.58
2016-12-29T12:33:01.715Z,20.6
2016-12-29T12:34:10.694Z,20.66
2016-12-29T12:35:19.665Z,20.68
2016-12-29T12:36:28.645Z,20.72
2016-12-29T12:37:37.644Z,20.68
2016-12-29T12:38:46.624Z,20.79
2016-12-29T12:39:55.629Z,20.76
2016-12-29T12:41:04.620Z,20.9
2016-12-29T12:42:13.602Z,20.83
2016-12-29T12:43:22.589Z,20.73
2016-12-29T12:44:31.565Z,20.84
2016-12-29T12:45:40.536Z,20.83
2016-12-29T12:46:49.511Z,20.9
2016-12-29T12:47:58.495Z,20.95
2016-12-29T12:49:07.471Z,20.87
2016-12-29T12:50:16.446Z,20.81
2016-12-29T12:51:25.492Z,20.81
2016-12-29T12:52:34.471Z,20.84
2016-12-29T12:53:44.271Z,20.88
2016-12-29T12:54:53.262Z,20.79
2016-12-29T12:56:02.286Z,20.91
2016-12-29T12:57:11.280Z,20.91
2016-12-29T12:58:20.265Z,20.91
2016-12-29T12:59:29.264Z,20.84
2016-12-29T13:00:38.243Z,20.93
2016-12-29T13:01:47.489Z,20.88
2016-12-29T13:02:56.708Z,20.9
2016-12-29T13:04:05.717Z,20.86
2016-12-29T13:05:14.741Z,20.88
2016-12-29T13:06:23.751Z,20.87
2016-12-29T13:07:32.944Z,20.87
2016-12-29T13:08:42.086Z,20.87
2016-12-29T13:09:51.136Z,20.86
2016-12-29T13:11:00.152Z,20.93
2016-12-29T13:12:10.129Z,20.91
2016-12-29T13:13:19.154Z,20.94
2016-12-29T13:14:28.140Z,20.9
2016-12-29T13:15:37.119Z,20.94
2016-12-29T13:16:46.103Z,20.95
2016-12-29T13:17:55.175Z,20.94
2016-12-29T13:19:04.199Z,20.87
2016-12-29T13:20:13.181Z,20.87
2016-12-29T13:21:22.168Z,21.02
2016-12-29T13:22:31.160Z,21.02
2016-12-29T13:23:40.161Z,21.03
2016-12-29T13:24:49.149Z,20.9
2016-12-29T13:25:58.627Z,20.94
2016-12-29T13:27:08.339Z,20.91
2016-12-29T13:28:17.333Z,20.94
2016-12-29T13:29:27.149Z,20.88
2016-12-29T13:30:36.551Z,20.91
2016-12-29T13:31:45.565Z,20.9
2016-12-29T13:32:54.548Z,20.9
2016-12-29T13:34:03.581Z,20.94
2016-12-29T13:35:12.577Z,20.93
2016-12-29T13:36:21.564Z,20.88
2016-12-29T13:37:30.550Z,20.95
2016-12-29T13:38:39.554Z,20.95
2016-12-29T13:39:48.542Z,20.97
2016-12-29T13:40:57.557Z,20.93
2016-12-29T13:42:06.546Z,20.88
2016-12-29T13:43:15.544Z,20.97
2016-12-29T13:44:24.570Z,20.9
2016-12-29T13:45:33.580Z,20.91
2016-12-29T13:46:42.552Z,20.91
2016-12-29T13:47:51.540Z,20.94
2016-12-29T13:49:00.934Z,20.93
2016-12-29T13:50:10.007Z,20.91
2016-12-29T13:51:18.988Z,20.94
2016-12-29T13:52:27.971Z,20.93
2016-12-29T13:53:36.952Z,20.93
2016-12-29T13:54:45.943Z,20.93
2016-12-29T13:55:54.931Z,20.91
2016-12-29T13:57:03.919Z,20.97
2016-12-29T13:58:12.916Z,20.9
2016-12-29T13:59:21.901Z,20.9
2016-12-29T14:00:30.882Z,20.94
2016-12-29T14:01:39.877Z,20.95
2016-12-29T14:02:48.870Z,21.03
2016-12-29T14:03:57.896Z,21.08
2016-12-29T14:05:06.920Z,21.1
2016-12-29T14:06:15.991Z,20.97
2016-12-29T14:07:25.614Z,21.05
2016-12-29T14:08:34.863Z,20.99
2016-12-29T14:09:44.635Z,20.93
2016-12-29T14:10:53.629Z,20.94
2016-12-29T14:12:02.618Z,20.93
2016-12-29T14:13:11.910Z,20.95
2016-12-29T14:14:21.137Z,21.06
2016-12-29T14:15:30.114Z,21.03
2016-12-29T14:16:39.118Z,20.94
2016-12-29T14:17:48.105Z,21.02
2016-12-29T14:18:57.303Z,21.18
2016-12-29T14:20:06.371Z,21.09
2016-12-29T14:21:15.348Z,21.17
2016-12-29T14:22:24.695Z,21.18
2016-12-29T14:23:33.687Z,21.1
2016-12-29T14:24:42.677Z,21.09
2016-12-29T14:25:51.684Z,21.06
2016-12-29T14:27:00.700Z,21.15
2016-12-29T14:28:10.109Z,21.06
2016-12-29T14:29:19.103Z,21.06
2016-12-29T14:30:28.091Z,21.18
2016-12-29T14:31:37.088Z,21.13
2016-12-29T14:32:46.091Z,21.05
2016-12-29T14:33:55.660Z,21.1
2016-12-29T14:35:05.211Z,21.18
2016-12-29T14:36:14.194Z,21.12
2016-12-29T14:37:23.177Z,21.12
2016-12-29T14:38:32.165Z,21.18
2016-12-29T14:39:41.419Z,21.18
2016-12-29T14:40:50.426Z,21.2
2016-12-29T14:41:59.422Z,21.25
2016-12-29T14:43:08.405Z,21.2
2016-12-29T14:44:17.389Z,21.13
2016-12-29T14:45:26.405Z,21.23
2016-12-29T14:46:35.385Z,21.23
2016-12-29T14:47:44.404Z,21.33
2016-12-29T14:48:53.407Z,21.38
2016-12-29T14:50:03.205Z,21.38
2016-12-29T14:51:12.190Z,21.36
2016-12-29T14:52:21.183Z,21.4